createdAt,value
2022-10-17T00:00:57.119Z,101857.41
2022-10-17T00:03:40.976Z,101856.53
2022-10-17T00:06:41.239Z,101866.22
2022-10-17T00:09:36.292Z,101860.97
2022-10-17T00:12:32.263Z,101860.88
2022-10-17T00:15:36.691Z,101869.59
2022-10-17T00:18:36.352Z,101867.94
2022-10-17T00:24:48.855Z,101867.06
2022-10-17T00:27:28.179Z,101855.72
2022-10-17T00:30:37.674Z,101849.84
2022-10-17T00:34:01.961Z,101837.63
2022-10-17T00:36:35.260Z,101838.44
2022-10-17T00:39:04.738Z,101854.22
2022-10-17T00:41:41.630Z,101866.44
2022-10-17T00:44:57.086Z,101863.72
2022-10-17T00:47:44.719Z,101853.09
2022-10-17T00:50:47.957Z,101841.84
2022-10-17T00:53:26.159Z,101842.66
2022-10-17T00:56:11.883Z,101854.22
2022-10-17T01:02:11.503Z,101842.78
2022-10-17T01:05:06.588Z,101849.84
2022-10-17T01:08:12.658Z,101854.38
2022-10-17T01:11:19.045Z,101853.41
2022-10-17T01:14:30.602Z,101856.66
2022-10-17T01:17:29.146Z,101862.66
2022-10-17T01:21:20.765Z,101866.97
2022-10-17T01:24:34.890Z,101853.09
2022-10-17T01:27:53.764Z,101840.97
2022-10-17T01:31:05.373Z,101828.06
2022-10-17T01:37:09.646Z,101829.81
2022-10-17T01:40:05.552Z,101824.66
2022-10-17T01:42:50.794Z,101824.78
2022-10-17T01:45:35.398Z,101818.69
2022-10-17T01:48:20.941Z,101822.34
2022-10-17T01:51:25.424Z,101810.16
2022-10-17T01:54:15.082Z,101818.16
2022-10-17T01:57:06.393Z,101811.22
2022-10-17T02:00:28.484Z,101816.47
2022-10-17T02:03:20.245Z,101823.41
2022-10-17T02:06:26.874Z,101817.22
2022-10-17T02:09:19.981Z,101820.47
2022-10-17T02:12:30.783Z,101827.50
2022-10-17T02:15:51.046Z,101827.75
2022-10-17T02:19:14.970Z,101826.06
2022-10-17T02:25:55.903Z,101830.78
2022-10-17T02:28:59.325Z,101826.47
2022-10-17T02:32:03.840Z,101828.44
2022-10-17T02:35:08.987Z,101824.09
2022-10-17T02:38:15.712Z,101811.94
2022-10-17T02:41:38.836Z,101812.13
2022-10-17T02:44:35.574Z,101814.03
2022-10-17T02:47:37.598Z,101814.97
2022-10-17T02:50:36.393Z,101815.91
2022-10-17T03:00:57.884Z,101809.19
2022-10-17T03:04:24.794Z,101810.97
2022-10-17T03:07:20.282Z,101815.28
2022-10-17T03:10:17.963Z,101799.59
2022-10-17T03:13:50.883Z,101810.13
2022-10-17T03:16:21.467Z,101804.03
2022-10-17T03:18:50.417Z,101803.09
2022-10-17T03:24:06.141Z,101804.75
2022-10-17T03:26:35.211Z,101799.41
2022-10-17T03:29:08.705Z,101803.63
2022-10-17T03:32:07.230Z,101807.06
2022-10-17T03:34:38.359Z,101813.78
2022-10-17T03:37:10.128Z,101801.41
2022-10-17T03:39:40.982Z,101803.94
2022-10-17T03:42:11.802Z,101800.34
2022-10-17T03:44:40.293Z,101791.56
2022-10-17T03:47:11.865Z,101788.91
2022-10-17T03:50:03.079Z,101801.19
2022-10-17T03:52:34.721Z,101799.34
2022-10-17T03:55:03.501Z,101801.13
2022-10-17T03:58:08.432Z,101798.38
2022-10-17T04:03:26.080Z,101799.34
2022-10-17T04:05:56.604Z,101795.09
2022-10-17T04:08:32.554Z,101798.69
2022-10-17T04:11:19.989Z,101795.28
2022-10-17T04:14:09.801Z,101793.53
2022-10-17T04:16:44.909Z,101784.78
2022-10-17T04:25:16.174Z,101765.75
2022-10-17T04:27:49.497Z,101781.63
2022-10-17T04:30:41.161Z,101773.84
2022-10-17T04:38:51.717Z,101788.88
2022-10-17T04:42:15.386Z,101782.06
2022-10-17T04:44:47.560Z,101783.00
2022-10-17T04:47:18.507Z,101774.38
2022-10-17T04:53:18.899Z,101779.00
2022-10-17T04:56:12.561Z,101779.94
2022-10-17T04:58:58.822Z,101785.19
2022-10-17T05:01:29.272Z,101778.34
2022-10-17T05:04:05.668Z,101777.63
2022-10-17T05:06:34.818Z,101779.53
2022-10-17T05:12:33.431Z,101779.63
2022-10-17T05:15:16.188Z,101778.03
2022-10-17T05:22:01.247Z,101782.34
2022-10-17T05:24:32.179Z,101789.19
2022-10-17T05:27:01.375Z,101783.06
2022-10-17T05:29:31.237Z,101790.03
2022-10-17T05:32:09.141Z,101790.88
2022-10-17T05:34:39.920Z,101791.69
2022-10-17T05:37:08.807Z,101797.72
2022-10-17T05:39:37.306Z,101788.88
2022-10-17T05:42:07.861Z,101792.34
2022-10-17T05:44:41.818Z,101783.59
2022-10-17T05:47:41.123Z,101781.94
2022-10-17T05:50:17.081Z,101775.63
2022-10-17T05:56:37.164Z,101785.19
2022-10-17T05:59:23.828Z,101796.53
2022-10-17T06:01:58.707Z,101798.34
2022-10-17T06:04:28.809Z,101800.78
2022-10-17T06:06:59.824Z,101797.94
2022-10-17T06:09:34.686Z,101801.41
2022-10-17T06:12:04.159Z,101801.28
2022-10-17T06:14:38.917Z,101806.44
2022-10-17T06:17:15.597Z,101816.00
2022-10-17T06:19:53.471Z,101820.31
2022-10-17T06:25:18.729Z,101835.78
2022-10-17T06:27:48.824Z,101832.19
2022-10-17T06:30:49.341Z,101833.06
2022-10-17T06:43:18.208Z,101841.31
2022-10-17T06:49:40.479Z,101852.25
2022-10-17T06:52:20.547Z,101846.69
2022-10-17T06:55:09.200Z,101849.94
2022-10-17T07:00:55.457Z,101857.28
2022-10-17T07:06:29.124Z,101860.34
2022-10-17T07:09:11.782Z,101860.97
2022-10-17T07:11:40.221Z,101856.25
2022-10-17T07:14:11.226Z,101859.50
2022-10-17T07:20:44.317Z,101857.78
2022-10-17T07:23:15.359Z,101866.19
2022-10-17T07:25:43.813Z,101868.41
2022-10-17T07:31:10.324Z,101876.63
2022-10-17T07:36:35.234Z,101873.44
2022-10-17T07:39:17.887Z,101873.09
2022-10-17T07:41:51.019Z,101873.75
2022-10-17T07:57:30.015Z,101881.16
2022-10-17T08:07:33.157Z,101883.03
2022-10-17T08:20:16.813Z,101888.34
2022-10-17T08:22:51.358Z,101885.28
2022-10-17T08:25:36.647Z,101882.91
2022-10-17T08:30:52.882Z,101884.13
2022-10-17T08:39:33.489Z,101878.06
2022-10-17T08:42:35.797Z,101874.84
2022-10-17T08:54:16.328Z,101867.22
2022-10-17T09:02:54.402Z,101873.63
2022-10-17T09:05:46.959Z,101866.44
2022-10-17T09:08:49.937Z,101868.31
2022-10-17T09:18:22.091Z,101863.72
2022-10-17T09:20:55.867Z,101881.47
2022-10-17T09:23:27.660Z,101874.56
2022-10-17T09:26:04.502Z,101883.38
2022-10-17T09:28:42.335Z,101872.84
2022-10-17T09:31:17.619Z,101872.94
2022-10-17T09:33:54.585Z,101882.88
2022-10-17T09:36:29.996Z,101875.81
2022-10-17T09:39:03.237Z,101873.34
2022-10-17T09:41:47.219Z,101868.91
2022-10-17T09:44:22.637Z,101871.31
2022-10-17T09:47:05.575Z,101879.72
2022-10-17T09:49:37.572Z,101862.44
2022-10-17T09:52:12.213Z,101871.59
2022-10-17T09:54:49.608Z,101860.28
2022-10-17T09:57:18.885Z,101859.31
2022-10-17T09:59:51.079Z,101869.72
2022-10-17T10:02:25.675Z,101863.06
2022-10-17T10:05:05.439Z,101864.53
2022-10-17T10:07:35.385Z,101857.72
2022-10-17T10:10:05.750Z,101850.63
2022-10-17T10:12:35.663Z,101862.03
2022-10-17T10:15:23.990Z,101855.56
2022-10-17T10:17:51.826Z,101859.53
2022-10-17T10:20:30.930Z,101867.41
2022-10-17T10:23:12.557Z,101857.53
2022-10-17T10:25:53.786Z,101864.00
2022-10-17T10:28:26.799Z,101873.13
2022-10-17T10:30:56.465Z,101868.91
2022-10-17T10:33:28.166Z,101865.75
2022-10-17T10:36:01.696Z,101871.91
2022-10-17T10:38:30.733Z,101858.34
2022-10-17T10:41:04.665Z,101867.03
2022-10-17T10:43:36.314Z,101867.16
2022-10-17T10:46:07.712Z,101861.53
2022-10-17T10:48:37.248Z,101866.97
2022-10-17T10:51:11.022Z,101848.13
2022-10-17T10:53:45.211Z,101851.84
2022-10-17T10:56:18.196Z,101857.91
2022-10-17T10:58:57.075Z,101857.97
2022-10-17T11:01:31.096Z,101858.91
2022-10-17T11:04:14.615Z,101852.41
2022-10-17T11:06:46.584Z,101850.91
2022-10-17T11:09:34.117Z,101849.03
2022-10-17T11:12:06.862Z,101855.38
2022-10-17T11:14:46.075Z,101848.88
2022-10-17T11:17:26.310Z,101845.03
2022-10-17T11:20:04.763Z,101844.34
2022-10-17T11:22:38.719Z,101840.22
2022-10-17T11:25:15.703Z,101831.38
2022-10-17T11:27:43.345Z,101831.50
2022-10-17T11:30:14.849Z,101837.97
2022-10-17T11:32:47.239Z,101832.19
2022-10-17T11:35:20.883Z,101827.25
2022-10-17T11:37:54.301Z,101826.84
2022-10-17T11:40:30.098Z,101834.13
2022-10-17T11:43:01.914Z,101831.47
2022-10-17T11:45:36.027Z,101830.63
2022-10-17T11:48:11.062Z,101828.16
2022-10-17T11:53:45.795Z,101826.06
2022-10-17T11:56:16.199Z,101822.13
2022-10-17T11:58:52.105Z,101818.38
2022-10-17T12:01:46.085Z,101816.97
2022-10-17T12:04:28.153Z,101815.06
2022-10-17T12:07:18.126Z,101810.09
2022-10-17T12:10:02.819Z,101810.69
2022-10-17T12:12:35.001Z,101808.88
2022-10-17T12:15:38.105Z,101813.44
2022-10-17T12:18:12.460Z,101807.91
2022-10-17T12:20:42.201Z,101807.53
2022-10-17T12:23:34.515Z,101809.88
2022-10-17T12:26:08.445Z,101796.81
2022-10-17T12:28:45.181Z,101810.53
2022-10-17T12:31:33.859Z,101794.19
2022-10-17T12:34:10.879Z,101799.38
2022-10-17T12:36:40.895Z,101803.09
2022-10-17T12:39:54.461Z,101807.66
2022-10-17T12:46:05.981Z,101797.09
2022-10-17T12:49:06.986Z,101789.41
2022-10-17T12:52:16.149Z,101780.28
2022-10-17T12:55:00.140Z,101786.25
2022-10-17T12:57:44.433Z,101781.53
2022-10-17T13:00:24.549Z,101786.03
2022-10-17T13:03:06.613Z,101795.41
2022-10-17T13:06:02.037Z,101781.72
2022-10-17T13:08:34.669Z,101781.53
2022-10-17T13:11:09.900Z,101776.56
2022-10-17T13:13:49.870Z,101778.19
2022-10-17T13:16:40.443Z,101770.50
2022-10-17T13:19:17.816Z,101765.38
2022-10-17T13:21:52.066Z,101767.25
2022-10-17T13:24:28.943Z,101771.00
2022-10-17T13:26:56.998Z,101773.88
2022-10-17T13:29:25.860Z,101776.28
2022-10-17T13:31:55.244Z,101787.97
2022-10-17T13:34:26.288Z,101779.13
2022-10-17T13:36:56.571Z,101772.59
2022-10-17T13:39:44.976Z,101768.94
2022-10-17T13:42:23.737Z,101774.31
2022-10-17T13:44:52.150Z,101774.03
2022-10-17T13:47:24.923Z,101770.22
2022-10-17T13:49:55.752Z,101766.38
2022-10-17T13:52:27.797Z,101769.75
2022-10-17T13:54:57.368Z,101769.59
2022-10-17T13:57:27.985Z,101765.13
2022-10-17T14:00:00.005Z,101773.03
2022-10-17T14:02:30.348Z,101769.97
2022-10-17T14:05:16.692Z,101774.78
2022-10-17T14:10:43.263Z,101779.16
2022-10-17T14:13:23.246Z,101775.44
2022-10-17T14:15:54.365Z,101771.00
2022-10-17T14:18:25.632Z,101779.59
2022-10-17T14:21:34.036Z,101779.94
2022-10-17T14:23:46.030Z,101773.00
2022-10-17T14:26:27.049Z,101768.75
2022-10-17T14:29:20.066Z,101764.44
2022-10-17T14:32:03.923Z,101777.72
2022-10-17T14:34:41.275Z,101776.44
2022-10-17T14:37:26.753Z,101781.09
2022-10-17T14:39:57.288Z,101782.50
2022-10-17T14:42:26.395Z,101778.31
2022-10-17T14:45:08.645Z,101787.09
2022-10-17T14:47:44.354Z,101797.63
2022-10-17T14:50:24.355Z,101781.28
2022-10-17T14:53:08.116Z,101797.06
2022-10-17T14:55:37.704Z,101795.56
2022-10-17T14:58:17.412Z,101796.44
2022-10-17T15:00:46.151Z,101793.31
2022-10-17T15:03:15.986Z,101796.66
2022-10-17T15:05:55.894Z,101791.66
2022-10-17T15:08:38.652Z,101802.03
2022-10-17T15:11:16.583Z,101797.22
2022-10-17T15:13:51.082Z,101804.59
2022-10-17T16:04:49.429Z,101809.84
2022-10-17T16:13:08.136Z,101811.69
2022-10-17T16:22:00.835Z,101809.84
2022-10-17T16:27:32.030Z,101815.00
2022-10-17T16:50:27.809Z,101826.22
2022-10-17T16:53:17.384Z,101819.06
2022-10-17T16:55:46.559Z,101826.72
2022-10-17T17:16:35.799Z,101827.06
2022-10-17T17:19:11.609Z,101826.88
2022-10-17T17:21:48.316Z,101829.16
2022-10-17T17:24:25.035Z,101828.97
2022-10-17T17:35:26.319Z,101824.25
2022-10-17T17:37:57.459Z,101830.75
2022-10-17T17:40:46.879Z,101824.03
2022-10-17T17:43:18.757Z,101827.16
2022-10-17T17:45:49.858Z,101831.13
2022-10-17T17:48:20.651Z,101830.59
2022-10-17T17:59:50.549Z,101841.25
2022-10-17T18:05:24.964Z,101843.16
2022-10-17T18:07:57.962Z,101840.22
2022-10-17T18:10:36.386Z,101842.66
2022-10-17T18:13:11.182Z,101847.84
2022-10-17T18:16:01.474Z,101851.13
2022-10-17T18:24:31.554Z,101858.91
2022-10-17T18:27:13.539Z,101870.81
2022-10-17T18:33:03.441Z,101863.25
2022-10-17T19:07:20.679Z,101895.59
2022-10-17T19:10:05.037Z,101889.03
2022-10-17T19:18:19.615Z,101893.81
2022-10-17T19:20:59.386Z,101906.47
2022-10-17T19:23:28.361Z,101913.06
2022-10-17T19:31:47.666Z,101929.09
2022-10-17T19:34:20.501Z,101925.47
2022-10-17T19:36:50.302Z,101923.91
2022-10-17T19:39:25.275Z,101916.09
2022-10-17T19:50:34.913Z,101916.38
2022-10-17T20:04:54.720Z,101931.44
2022-10-17T20:07:49.810Z,101936.28
2022-10-17T20:10:20.913Z,101934.88
2022-10-17T20:12:51.419Z,101926.63
2022-10-17T20:18:22.205Z,101937.78
2022-10-17T20:20:50.556Z,101943.34
2022-10-17T20:29:15.298Z,101940.34
2022-10-17T20:31:47.225Z,101944.09
2022-10-17T20:34:57.015Z,101946.44
2022-10-17T20:37:31.365Z,101943.22
2022-10-17T20:43:03.017Z,101956.00
2022-10-17T20:45:45.088Z,101960.03
2022-10-17T20:48:21.634Z,101960.44
2022-10-17T20:50:52.004Z,101968.06
2022-10-17T20:57:04.089Z,101970.75
2022-10-17T20:59:36.609Z,101972.09
2022-10-17T21:02:16.156Z,101969.97
2022-10-17T21:05:10.125Z,101973.81
2022-10-17T21:10:47.741Z,101974.84
2022-10-17T21:19:13.985Z,101978.97
2022-10-17T21:21:45.323Z,101981.28
2022-10-17T21:24:17.340Z,101983.22
2022-10-17T21:26:47.377Z,101989.63
2022-10-17T21:29:15.254Z,101986.34
2022-10-17T21:31:45.060Z,101985.66
2022-10-17T21:34:15.177Z,101993.69
2022-10-17T21:36:43.049Z,101989.41
2022-10-17T21:39:12.196Z,101987.00
2022-10-17T21:41:40.282Z,101984.22
2022-10-17T21:44:14.635Z,101988.91
2022-10-17T21:46:42.898Z,101983.63
2022-10-17T21:49:12.833Z,101989.88
2022-10-17T21:51:41.515Z,101996.25
2022-10-17T21:54:09.630Z,101994.59
2022-10-17T21:56:37.760Z,101986.03
2022-10-17T21:59:06.231Z,102000.38
2022-10-17T22:01:39.511Z,102005.91
2022-10-17T22:04:11.403Z,102007.97
2022-10-17T22:06:41.402Z,102011.56
2022-10-17T22:09:12.211Z,102024.78
2022-10-17T22:11:40.092Z,102023.00
2022-10-17T22:14:09.302Z,102016.97
2022-10-17T22:16:39.490Z,102019.59
2022-10-17T22:19:08.537Z,102018.78
2022-10-17T22:21:37.165Z,102019.59
2022-10-17T22:24:07.938Z,102018.06
2022-10-17T22:26:37.446Z,102021.44
2022-10-17T22:29:06.120Z,102028.66
2022-10-17T22:31:34.090Z,102033.94
2022-10-17T22:34:05.113Z,102028.88
2022-10-17T22:36:33.728Z,102028.19
2022-10-17T22:39:01.879Z,102026.97
2022-10-17T22:41:29.786Z,102027.19
2022-10-17T22:43:57.626Z,102022.03
2022-10-17T22:46:25.602Z,102023.84
2022-10-17T22:48:53.285Z,102019.53
2022-10-17T22:53:50.285Z,102028.41
2022-10-17T22:56:19.578Z,102027.59
2022-10-17T22:58:47.518Z,102030.44
2022-10-17T23:01:17.796Z,102022.75
2022-10-17T23:03:45.757Z,102020.34
2022-10-17T23:06:13.998Z,102033.69
2022-10-17T23:08:43.583Z,102027.91
2022-10-17T23:11:11.456Z,102036.91
2022-10-17T23:13:40.491Z,102031.88
2022-10-17T23:16:09.181Z,102031.16
2022-10-17T23:18:38.397Z,102022.50
2022-10-17T23:21:06.375Z,102040.50
2022-10-17T23:23:33.881Z,102036.31
2022-10-17T23:26:06.770Z,102029.69
2022-10-17T23:28:35.698Z,102036.78
2022-10-17T23:31:13.714Z,102036.91
2022-10-17T23:33:41.651Z,102027.28
2022-10-17T23:36:10.776Z,102035.34
2022-10-17T23:38:38.419Z,102032.69
2022-10-17T23:41:09.218Z,102040.72
2022-10-17T23:43:37.232Z,102039.78
2022-10-17T23:46:05.990Z,102037.97
2022-10-17T23:48:33.873Z,102040.63
2022-10-17T23:51:01.885Z,102043.25
2022-10-17T23:53:29.549Z,102041.44
2022-10-17T23:55:57.141Z,102042.31
2022-10-17T23:58:26.041Z,102025.47
